createdAt,value
2018-09-13T00:01:28.696Z,20
2018-09-13T00:11:26.949Z,20
2018-09-13T00:21:27.281Z,20
2018-09-13T00:31:26.333Z,20
2018-09-13T00:41:27.597Z,20
2018-09-13T00:51:27.802Z,20
2018-09-13T01:01:27.413Z,20
2018-09-13T01:11:26.638Z,20
2018-09-13T01:21:27.988Z,20
2018-09-13T01:31:27.903Z,20
2018-09-13T01:41:29.343Z,20
2018-09-13T01:51:27.476Z,20
2018-09-13T02:01:26.327Z,19
2018-09-13T02:11:27.895Z,20
2018-09-13T02:21:27.221Z,19
2018-09-13T02:31:27.068Z,19
2018-09-13T02:41:28.537Z,19
2018-09-13T02:51:28.242Z,19
2018-09-13T03:01:27.081Z,20
2018-09-13T03:11:28.006Z,19
2018-09-13T03:21:28.847Z,19
2018-09-13T03:31:26.647Z,19
2018-09-13T03:41:28.982Z,19
2018-09-13T03:51:27.808Z,18
2018-09-13T04:01:30.785Z,18
2018-09-13T04:11:28.872Z,18
2018-09-13T04:21:28.348Z,18
2018-09-13T04:31:27.664Z,18
2018-09-13T04:41:27.108Z,18
2018-09-13T04:51:27.737Z,18
2018-09-13T05:01:26.514Z,18
2018-09-13T05:11:28.080Z,18
2018-09-13T05:21:28.879Z,19
2018-09-13T05:31:28.591Z,19
2018-09-13T05:41:26.470Z,19
2018-09-13T05:51:28.486Z,19
2018-09-13T06:01:27.233Z,19
2018-09-13T06:11:26.590Z,19
2018-09-13T06:21:27.720Z,20
2018-09-13T06:31:26.747Z,20
2018-09-13T06:41:27.680Z,20
2018-09-13T06:51:26.854Z,20
2018-09-13T07:01:26.844Z,20
2018-09-13T07:11:27.026Z,20
2018-09-13T07:21:26.202Z,21
2018-09-13T07:31:28.232Z,21
2018-09-13T07:41:27.593Z,21
2018-09-13T07:51:26.869Z,21
2018-09-13T08:01:28.497Z,21
2018-09-13T08:11:26.503Z,22
2018-09-13T08:21:26.716Z,22
2018-09-13T08:31:27.435Z,22
2018-09-13T08:41:26.433Z,22
2018-09-13T08:51:26.508Z,22
2018-09-13T09:01:26.591Z,22
2018-09-13T09:11:27.321Z,22
2018-09-13T09:21:27.618Z,23
2018-09-13T09:31:26.864Z,23
2018-09-13T09:41:29.128Z,23
2018-09-13T09:51:26.697Z,23
2018-09-13T10:01:26.730Z,23
2018-09-13T10:11:27.744Z,23
2018-09-13T10:21:27.136Z,23
2018-09-13T10:31:27.487Z,24
2018-09-13T10:41:26.547Z,24
2018-09-13T10:51:26.889Z,24
2018-09-13T11:01:27.312Z,24
2018-09-13T11:11:28.182Z,24
2018-09-13T11:21:26.282Z,24
2018-09-13T11:31:27.178Z,25
2018-09-13T11:41:27.293Z,25
2018-09-13T11:51:28.299Z,25
2018-09-13T12:01:26.768Z,25
2018-09-13T12:11:26.984Z,25
2018-09-13T12:21:27.585Z,26
2018-09-13T12:31:27.844Z,26
2018-09-13T12:41:27.684Z,26
2018-09-13T12:51:26.817Z,26
2018-09-13T13:01:27.225Z,26
2018-09-13T13:11:26.984Z,26
2018-09-13T13:21:26.334Z,26
2018-09-13T13:31:26.731Z,26
2018-09-13T13:41:27.404Z,26
2018-09-13T13:51:27.826Z,26
2018-09-13T14:01:28.701Z,26
2018-09-13T14:11:27.421Z,26
2018-09-13T14:21:27.102Z,26
2018-09-13T14:31:27.549Z,25
2018-09-13T14:41:28.264Z,26
2018-09-13T14:51:28.284Z,26
2018-09-13T15:01:26.717Z,25
2018-09-13T15:11:27.801Z,26
2018-09-13T15:21:27.196Z,25
2018-09-13T15:31:27.306Z,25
2018-09-13T15:41:26.644Z,25
2018-09-13T15:51:27.686Z,25
2018-09-13T16:01:29.208Z,25
2018-09-13T16:11:27.445Z,25
2018-09-13T16:21:26.825Z,25
2018-09-13T16:31:26.962Z,25
2018-09-13T16:41:27.773Z,25
2018-09-13T16:51:29.114Z,24
2018-09-13T17:01:28.977Z,24
2018-09-13T17:11:27.214Z,24
2018-09-13T17:21:27.373Z,24
2018-09-13T17:31:27.723Z,24
2018-09-13T17:41:26.820Z,24
2018-09-13T17:51:27.255Z,23
2018-09-13T18:01:26.918Z,23
2018-09-13T18:11:28.630Z,23
2018-09-13T18:21:28.987Z,23
2018-09-13T18:31:29.133Z,23
2018-09-13T18:41:26.431Z,23
2018-09-13T18:51:26.828Z,23
2018-09-13T19:01:27.393Z,23
2018-09-13T19:11:33.201Z,23
2018-09-13T19:21:27.780Z,23
2018-09-13T19:31:27.335Z,22
2018-09-13T19:41:27.026Z,22
2018-09-13T19:51:28.429Z,22
2018-09-13T20:01:27.288Z,22
2018-09-13T20:11:28.462Z,22
2018-09-13T20:21:26.867Z,22
2018-09-13T20:31:27.452Z,22
2018-09-13T20:41:27.445Z,22
2018-09-13T20:51:26.571Z,22
2018-09-13T21:01:26.530Z,22
2018-09-13T21:11:27.184Z,22
2018-09-13T21:22:47.854Z,22
2018-09-13T21:31:27.450Z,21
2018-09-13T21:41:26.475Z,21
2018-09-13T21:51:27.842Z,22
2018-09-13T22:01:27.151Z,22
2018-09-13T22:11:28.938Z,21
2018-09-13T22:21:27.283Z,21
2018-09-13T22:31:26.962Z,21
2018-09-13T22:41:27.787Z,21
2018-09-13T22:51:26.430Z,21
2018-09-13T23:01:27.020Z,21
2018-09-13T23:11:29.706Z,21
2018-09-13T23:21:28.864Z,21
2018-09-13T23:31:27.203Z,20
2018-09-13T23:41:28.181Z,20
2018-09-13T23:51:27.254Z,20
